createdAt,value
2023-02-04T00:03:31.953Z,100.00
2023-02-04T00:06:18.985Z,100.00
2023-02-04T00:09:06.458Z,100.00
2023-02-04T00:11:53.551Z,100.00
2023-02-04T00:14:40.665Z,100.00
2023-02-04T00:17:28.030Z,100.00
2023-02-04T00:20:15.255Z,100.00
2023-02-04T00:23:02.336Z,100.00
2023-02-04T00:25:49.451Z,100.00
2023-02-04T00:28:36.498Z,100.00
2023-02-04T00:31:23.662Z,100.00
2023-02-04T00:34:10.789Z,100.00
2023-02-04T00:36:58.024Z,100.00
2023-02-04T00:39:45.067Z,100.00
2023-02-04T00:42:32.157Z,100.00
2023-02-04T00:45:19.325Z,100.00
2023-02-04T00:48:06.402Z,100.00
2023-02-04T00:50:54.191Z,100.00
2023-02-04T00:53:41.303Z,100.00
2023-02-04T00:56:28.336Z,100.00
2023-02-04T00:59:15.445Z,100.00
2023-02-04T01:02:02.605Z,100.00
2023-02-04T01:04:49.730Z,100.00
2023-02-04T01:07:37.456Z,100.00
2023-02-04T01:10:24.632Z,100.00
2023-02-04T01:13:12.038Z,100.00
2023-02-04T01:15:59.171Z,100.00
2023-02-04T01:18:46.486Z,100.00
2023-02-04T01:21:33.612Z,100.00
2023-02-04T01:24:20.644Z,100.00
2023-02-04T01:27:07.875Z,100.00
2023-02-04T01:29:54.980Z,100.00
2023-02-04T01:32:42.280Z,100.00
2023-02-04T01:35:29.432Z,100.00
2023-02-04T01:38:16.526Z,100.00
2023-02-04T01:41:04.676Z,100.00
2023-02-04T01:43:51.743Z,100.00
2023-02-04T01:46:38.906Z,100.00
2023-02-04T01:49:26.675Z,100.00
2023-02-04T01:52:13.815Z,100.00
2023-02-04T01:55:01.076Z,100.00
2023-02-04T01:57:50.965Z,100.00
2023-02-04T02:00:39.326Z,100.00
2023-02-04T02:03:26.375Z,100.00
2023-02-04T02:06:13.574Z,100.00
2023-02-04T02:09:01.805Z,100.00
2023-02-04T02:11:49.265Z,100.00
2023-02-04T02:14:36.386Z,100.00
2023-02-04T02:17:23.927Z,100.00
2023-02-04T02:20:14.594Z,100.00
2023-02-04T02:23:04.971Z,100.00
2023-02-04T02:25:52.289Z,100.00
2023-02-04T02:28:39.600Z,100.00
2023-02-04T02:31:26.844Z,100.00
2023-02-04T02:34:14.363Z,100.00
2023-02-04T02:37:02.616Z,100.00
2023-02-04T02:39:49.783Z,100.00
2023-02-04T02:42:37.709Z,100.00
2023-02-04T02:45:30.645Z,100.00
2023-02-04T02:48:17.757Z,100.00
2023-02-04T02:51:04.935Z,100.00
2023-02-04T02:53:52.225Z,100.00
2023-02-04T02:56:39.386Z,100.00
2023-02-04T02:59:27.645Z,100.00
2023-02-04T03:02:22.126Z,100.00
2023-02-04T03:05:10.147Z,100.00
2023-02-04T03:07:57.297Z,100.00
2023-02-04T03:10:46.225Z,100.00
2023-02-04T03:13:34.305Z,100.00
2023-02-04T03:16:21.335Z,100.00
2023-02-04T03:19:09.025Z,100.00
2023-02-04T03:21:56.590Z,100.00
2023-02-04T03:24:43.772Z,100.00
2023-02-04T03:27:30.850Z,100.00
2023-02-04T03:33:20.394Z,100.00
2023-02-04T03:36:08.146Z,100.00
2023-02-04T03:38:55.329Z,100.00
2023-02-04T03:41:42.425Z,100.00
2023-02-04T03:44:29.575Z,100.00
2023-02-04T03:47:16.633Z,100.00
2023-02-04T03:50:05.484Z,100.00
2023-02-04T03:52:53.970Z,100.00
2023-02-04T03:55:41.025Z,100.00
2023-02-04T03:58:28.085Z,100.00
2023-02-04T04:01:15.163Z,100.00
2023-02-04T04:04:02.300Z,100.00
2023-02-04T04:06:49.660Z,100.00
2023-02-04T04:09:36.765Z,100.00
2023-02-04T04:12:23.834Z,100.00
2023-02-04T04:15:11.178Z,100.00
2023-02-04T04:17:58.236Z,100.00
2023-02-04T04:20:45.327Z,100.00
2023-02-04T04:23:32.345Z,100.00
2023-02-04T04:26:19.556Z,100.00
2023-02-04T04:29:06.632Z,100.00
2023-02-04T04:31:53.745Z,100.00
2023-02-04T04:34:40.913Z,100.00
2023-02-04T04:37:28.029Z,100.00
2023-02-04T04:40:15.137Z,100.00
2023-02-04T04:43:02.700Z,100.00
2023-02-04T04:45:49.736Z,100.00
2023-02-04T04:48:36.835Z,100.00
2023-02-04T04:51:23.894Z,100.00
2023-02-04T04:54:10.992Z,100.00
2023-02-04T04:56:58.021Z,100.00
2023-02-04T04:59:45.118Z,100.00
2023-02-04T05:02:32.372Z,100.00
2023-02-04T05:05:19.489Z,100.00
2023-02-04T05:08:10.990Z,100.00
2023-02-04T05:10:58.054Z,100.00
2023-02-04T05:13:45.157Z,100.00
2023-02-04T05:16:32.243Z,100.00
2023-02-04T05:19:19.321Z,100.00
2023-02-04T05:22:06.380Z,100.00
2023-02-04T05:24:53.398Z,100.00
2023-02-04T05:27:40.599Z,100.00
2023-02-04T05:30:27.673Z,100.00
2023-02-04T05:33:14.814Z,100.00
2023-02-04T05:36:01.881Z,100.00
2023-02-04T05:38:49.092Z,100.00
2023-02-04T05:41:36.222Z,100.00
2023-02-04T05:44:23.284Z,100.00
2023-02-04T05:47:10.324Z,100.00
2023-02-04T05:49:57.379Z,100.00
2023-02-04T05:52:44.503Z,100.00
2023-02-04T05:55:31.629Z,100.00
2023-02-04T05:58:18.643Z,100.00
2023-02-04T06:01:05.893Z,98.86
2023-02-04T06:03:53.000Z,100.00
2023-02-04T06:06:40.119Z,97.49
2023-02-04T06:09:27.199Z,97.36
2023-02-04T06:12:14.373Z,99.40
2023-02-04T06:15:01.388Z,93.60
2023-02-04T06:17:48.482Z,89.72
2023-02-04T06:20:35.518Z,94.36
2023-02-04T06:23:22.574Z,91.60
2023-02-04T06:26:09.680Z,89.48
2023-02-04T06:28:56.734Z,89.08
2023-02-04T06:31:44.762Z,88.49
2023-02-04T06:34:31.954Z,88.88
2023-02-04T06:37:19.069Z,86.13
2023-02-04T06:40:06.838Z,86.07
2023-02-04T06:42:53.919Z,88.76
2023-02-04T06:45:41.019Z,89.71
2023-02-04T06:48:29.624Z,86.73
2023-02-04T06:51:17.965Z,85.98
2023-02-04T06:54:05.178Z,87.21
2023-02-04T06:56:52.350Z,85.04
2023-02-04T06:59:40.867Z,80.52
2023-02-04T07:02:27.950Z,82.39
2023-02-04T07:05:15.169Z,79.41
2023-02-04T07:08:02.321Z,78.84
2023-02-04T07:10:49.379Z,81.93
2023-02-04T07:13:36.549Z,84.28
2023-02-04T07:16:23.606Z,78.31
2023-02-04T07:19:10.662Z,79.34
2023-02-04T07:21:57.712Z,83.90
2023-02-04T07:24:44.915Z,85.45
2023-02-04T07:27:31.949Z,90.11
2023-02-04T07:30:19.109Z,82.75
2023-02-04T07:33:06.142Z,79.56
2023-02-04T07:35:53.242Z,87.15
2023-02-04T07:38:40.232Z,84.05
2023-02-04T07:41:27.336Z,85.00
2023-02-04T07:44:14.410Z,79.16
2023-02-04T07:47:01.479Z,82.38
2023-02-04T07:49:48.509Z,82.36
2023-02-04T07:52:35.531Z,85.86
2023-02-04T07:55:22.569Z,87.70
2023-02-04T07:58:09.632Z,88.57
2023-02-04T08:00:56.699Z,85.10
2023-02-04T08:03:44.410Z,91.21
2023-02-04T08:06:31.510Z,82.65
2023-02-04T08:09:18.685Z,81.08
2023-02-04T08:12:05.987Z,81.06
2023-02-04T08:14:53.183Z,73.87
2023-02-04T08:17:40.277Z,80.88
2023-02-04T08:20:27.610Z,81.99
2023-02-04T08:23:14.694Z,75.82
2023-02-04T08:26:01.793Z,79.47
2023-02-04T08:28:48.849Z,80.09
2023-02-04T08:31:38.351Z,78.57
2023-02-04T08:34:25.511Z,78.91
2023-02-04T08:37:12.636Z,81.31
2023-02-04T08:39:59.699Z,81.11
2023-02-04T08:42:46.843Z,77.02
2023-02-04T08:45:33.908Z,74.07
2023-02-04T08:48:22.160Z,71.79
2023-02-04T08:51:09.284Z,68.67
2023-02-04T08:53:56.431Z,72.29
2023-02-04T08:56:44.165Z,74.00
2023-02-04T08:59:31.168Z,69.69
2023-02-04T09:02:18.307Z,70.27
2023-02-04T09:05:05.748Z,71.85
2023-02-04T09:07:52.786Z,68.62
2023-02-04T09:10:39.877Z,67.19
2023-02-04T09:13:26.908Z,68.31
2023-02-04T09:16:14.502Z,70.25
2023-02-04T09:19:04.696Z,69.30
2023-02-04T09:21:52.492Z,63.59
2023-02-04T09:24:39.540Z,65.03
2023-02-04T09:27:26.578Z,58.83
2023-02-04T09:30:14.088Z,61.35
2023-02-04T09:33:01.756Z,57.54
2023-02-04T09:35:48.755Z,59.35
2023-02-04T09:38:35.936Z,53.60
2023-02-04T09:41:23.068Z,56.72
2023-02-04T09:44:16.448Z,56.64
2023-02-04T09:47:03.553Z,58.50
2023-02-04T09:49:50.631Z,57.35
2023-02-04T09:52:37.735Z,54.05
2023-02-04T09:55:41.357Z,53.69
2023-02-04T09:58:33.317Z,54.95
2023-02-04T10:01:21.392Z,53.35
2023-02-04T10:04:13.250Z,52.35
2023-02-04T10:07:00.480Z,50.89
2023-02-04T10:09:48.473Z,51.79
2023-02-04T10:12:35.694Z,52.82
2023-02-04T10:15:22.831Z,50.30
2023-02-04T10:18:10.000Z,49.84
2023-02-04T10:21:12.219Z,50.63
2023-02-04T10:24:02.908Z,50.76
2023-02-04T10:26:49.943Z,51.36
2023-02-04T10:29:37.712Z,51.19
2023-02-04T10:32:30.160Z,51.99
2023-02-04T10:35:19.349Z,51.50
2023-02-04T10:38:07.707Z,52.50
2023-02-04T10:41:03.305Z,50.68
2023-02-04T10:44:03.072Z,53.98
2023-02-04T10:46:51.621Z,54.26
2023-02-04T10:49:39.310Z,52.46
2023-02-04T10:52:38.245Z,53.24
2023-02-04T10:55:25.286Z,52.94
2023-02-04T10:58:28.212Z,56.10
2023-02-04T11:01:16.998Z,54.85
2023-02-04T11:04:09.574Z,56.88
2023-02-04T11:06:56.634Z,56.25
2023-02-04T11:09:44.330Z,52.76
2023-02-04T11:12:42.165Z,53.42
2023-02-04T11:15:42.181Z,54.18
2023-02-04T11:18:30.290Z,55.83
2023-02-04T11:21:32.860Z,52.54
2023-02-04T11:24:25.879Z,55.17
2023-02-04T11:27:22.468Z,51.92
2023-02-04T11:30:23.054Z,53.71
2023-02-04T11:33:25.191Z,52.80
2023-02-04T11:36:14.830Z,55.23
2023-02-04T11:39:15.404Z,54.16
2023-02-04T11:42:02.951Z,54.79
2023-02-04T11:45:12.289Z,52.52
2023-02-04T11:48:02.904Z,54.12
2023-02-04T11:50:57.519Z,54.50
2023-02-04T11:53:44.824Z,51.40
2023-02-04T11:56:31.850Z,52.84
2023-02-04T11:59:21.601Z,51.37
2023-02-04T12:02:23.453Z,55.47
2023-02-04T12:05:16.960Z,52.31
2023-02-04T12:08:25.332Z,52.45
2023-02-04T12:11:27.311Z,51.39
2023-02-04T12:14:18.473Z,51.76
2023-02-04T12:17:20.811Z,52.13
2023-02-04T12:20:08.274Z,51.41
2023-02-04T12:22:55.407Z,52.63
2023-02-04T12:25:42.400Z,52.41
2023-02-04T12:28:29.795Z,53.94
2023-02-04T12:31:17.002Z,53.70
2023-02-04T12:34:04.322Z,53.11
2023-02-04T12:36:51.496Z,52.07
2023-02-04T12:39:38.636Z,52.75
2023-02-04T12:42:25.898Z,52.14
2023-02-04T12:45:15.079Z,52.91
2023-02-04T12:48:02.394Z,53.34
2023-02-04T12:50:49.537Z,51.47
2023-02-04T12:53:36.572Z,53.33
2023-02-04T12:56:24.423Z,53.65
2023-02-04T12:59:11.465Z,52.44
2023-02-04T13:01:58.868Z,50.25
2023-02-04T13:04:46.032Z,51.75
2023-02-04T13:07:33.597Z,51.39
2023-02-04T13:10:21.974Z,51.13
2023-02-04T13:13:09.236Z,51.72
2023-02-04T13:15:56.360Z,51.03
2023-02-04T13:18:43.617Z,51.10
2023-02-04T13:21:31.418Z,54.24
2023-02-04T13:24:18.635Z,54.06
2023-02-04T13:27:05.770Z,50.85
2023-02-04T13:29:52.921Z,52.93
2023-02-04T13:32:41.077Z,52.63
2023-02-04T13:35:28.333Z,53.57
2023-02-04T13:38:15.460Z,52.61
2023-02-04T13:41:02.551Z,51.52
2023-02-04T13:43:49.600Z,50.52
2023-02-04T13:46:36.772Z,52.53
2023-02-04T13:49:24.098Z,52.38
2023-02-04T13:52:11.266Z,53.96
2023-02-04T13:54:59.413Z,52.53
2023-02-04T13:57:46.580Z,52.70
2023-02-04T14:00:34.053Z,52.18
2023-02-04T14:03:21.492Z,50.92
2023-02-04T14:06:09.837Z,50.79
2023-02-04T14:08:56.888Z,50.96
2023-02-04T14:11:43.964Z,49.58
2023-02-04T14:14:31.271Z,50.06
2023-02-04T14:17:18.405Z,50.79
2023-02-04T14:20:06.128Z,51.10
2023-02-04T14:22:53.401Z,48.58
2023-02-04T14:25:41.041Z,51.42
2023-02-04T14:28:28.284Z,51.08
2023-02-04T14:31:15.410Z,51.71
2023-02-04T14:34:02.528Z,49.87
2023-02-04T14:36:49.609Z,50.13
2023-02-04T14:39:36.918Z,51.19
2023-02-04T14:42:23.993Z,51.60
2023-02-04T14:45:13.558Z,52.38
2023-02-04T14:48:01.555Z,51.88
2023-02-04T14:50:48.669Z,52.36
2023-02-04T14:53:36.056Z,54.56
2023-02-04T14:56:23.351Z,54.09
2023-02-04T14:59:11.180Z,53.72
2023-02-04T15:01:59.226Z,52.69
2023-02-04T15:04:46.619Z,52.24
2023-02-04T15:07:33.783Z,53.88
2023-02-04T15:10:21.631Z,55.73
2023-02-04T15:13:09.049Z,55.62
2023-02-04T15:15:56.347Z,55.02
2023-02-04T15:18:44.869Z,55.07
2023-02-04T15:21:31.999Z,54.61
2023-02-04T15:24:19.149Z,56.64
2023-02-04T15:27:06.687Z,56.03
2023-02-04T15:29:54.100Z,53.62
2023-02-04T15:32:43.214Z,54.50
2023-02-04T15:35:30.797Z,53.23
2023-02-04T15:38:18.058Z,54.62
2023-02-04T15:41:05.474Z,54.77
2023-02-04T15:43:52.632Z,54.70
2023-02-04T15:46:39.721Z,54.42
2023-02-04T15:49:27.010Z,54.01
2023-02-04T15:52:24.241Z,55.87
2023-02-04T15:55:12.055Z,55.35
2023-02-04T15:57:59.340Z,54.79
2023-02-04T16:00:46.493Z,56.85
2023-02-04T16:03:33.941Z,55.34
2023-02-04T16:06:21.144Z,54.85
2023-02-04T16:09:08.431Z,57.23
2023-02-04T16:11:55.548Z,56.47
2023-02-04T16:14:42.845Z,56.18
2023-02-04T16:17:30.137Z,56.33
2023-02-04T16:20:18.904Z,54.85
2023-02-04T16:23:08.917Z,55.96
2023-02-04T16:25:56.429Z,55.56
2023-02-04T16:28:47.642Z,54.29
2023-02-04T16:31:35.061Z,55.64
2023-02-04T16:34:22.196Z,55.61
2023-02-04T16:37:09.666Z,55.83
2023-02-04T16:39:56.962Z,56.84
2023-02-04T16:42:44.182Z,55.35
2023-02-04T16:45:31.716Z,56.84
2023-02-04T16:48:20.354Z,58.31
2023-02-04T16:51:08.279Z,59.22
2023-02-04T16:53:56.567Z,57.35
2023-02-04T16:56:43.733Z,55.22
2023-02-04T16:59:32.113Z,58.02
2023-02-04T17:02:19.360Z,58.55
2023-02-04T17:05:07.012Z,59.24
2023-02-04T17:07:55.466Z,60.50
2023-02-04T17:11:01.597Z,65.91
2023-02-04T17:13:48.891Z,66.01
2023-02-04T17:16:36.837Z,61.28
2023-02-04T17:19:27.130Z,59.01
2023-02-04T17:22:14.372Z,60.23
2023-02-04T17:25:01.688Z,75.10
2023-02-04T17:27:51.672Z,77.26
2023-02-04T17:30:39.108Z,82.94
2023-02-04T17:33:26.846Z,86.64
2023-02-04T17:36:15.473Z,83.39
2023-02-04T17:39:04.538Z,74.71
2023-02-04T17:41:52.100Z,73.06
2023-02-04T17:44:39.385Z,76.68
2023-02-04T17:47:26.631Z,71.57
2023-02-04T17:50:14.481Z,70.85
2023-02-04T17:53:01.748Z,76.63
2023-02-04T17:55:49.380Z,79.72
2023-02-04T17:58:38.115Z,78.74
2023-02-04T18:01:26.275Z,85.93
2023-02-04T18:04:14.443Z,88.83
2023-02-04T18:07:02.233Z,88.13
2023-02-04T18:09:49.625Z,74.66
2023-02-04T18:12:37.451Z,79.69
2023-02-04T18:15:32.810Z,83.14
2023-02-04T18:18:37.485Z,83.08
2023-02-04T18:21:31.476Z,84.22
2023-02-04T18:24:27.453Z,92.85
2023-02-04T18:27:31.615Z,92.96
2023-02-04T18:30:22.275Z,89.72
2023-02-04T18:33:21.589Z,90.49
2023-02-04T18:36:12.789Z,87.22
2023-02-04T18:39:02.294Z,91.81
2023-02-04T18:41:53.644Z,85.88
2023-02-04T18:44:41.689Z,85.07
2023-02-04T18:47:33.749Z,84.08
2023-02-04T18:50:34.779Z,88.29
2023-02-04T18:53:25.724Z,89.50
2023-02-04T18:56:17.080Z,79.28
2023-02-04T18:59:17.115Z,85.49
2023-02-04T19:02:33.277Z,84.05
2023-02-04T19:05:47.875Z,88.90
2023-02-04T19:08:44.783Z,86.61
2023-02-04T19:11:36.572Z,88.31
2023-02-04T19:14:43.123Z,96.18
2023-02-04T19:17:34.033Z,91.98
2023-02-04T19:20:23.403Z,84.89
2023-02-04T19:23:19.894Z,87.96
2023-02-04T19:26:29.533Z,85.16
2023-02-04T19:29:23.173Z,86.62
2023-02-04T19:32:33.237Z,84.28
2023-02-04T19:35:23.722Z,91.50
2023-02-04T19:38:47.291Z,83.58
2023-02-04T19:41:51.483Z,85.50
2023-02-04T19:44:46.880Z,89.22
2023-02-04T19:47:42.892Z,88.67
2023-02-04T19:50:33.522Z,83.91
2023-02-04T19:53:24.097Z,86.73
2023-02-04T19:56:41.645Z,80.32
2023-02-04T19:59:33.803Z,82.20
2023-02-04T20:02:36.671Z,83.01
2023-02-04T20:05:24.416Z,84.98
2023-02-04T20:08:30.073Z,82.70
2023-02-04T20:11:26.078Z,82.62
2023-02-04T20:14:16.663Z,85.31
2023-02-04T20:17:15.144Z,90.23
2023-02-04T20:20:32.506Z,90.87
2023-02-04T20:23:29.529Z,90.66
2023-02-04T20:26:16.719Z,95.50
2023-02-04T20:29:16.552Z,95.33
2023-02-04T20:32:18.366Z,89.56
2023-02-04T20:35:21.342Z,92.30
2023-02-04T20:38:20.851Z,93.81
2023-02-04T20:41:20.840Z,94.14
2023-02-04T20:44:23.850Z,91.62
2023-02-04T20:47:26.087Z,94.60
2023-02-04T20:50:38.751Z,92.01
2023-02-04T20:53:37.983Z,88.85
2023-02-04T20:56:40.299Z,92.39
2023-02-04T20:59:36.949Z,95.58
2023-02-04T21:02:24.489Z,96.33
2023-02-04T21:05:30.892Z,92.18
2023-02-04T21:08:21.092Z,91.15
2023-02-04T21:11:09.450Z,90.09
2023-02-04T21:13:56.747Z,87.15
2023-02-04T21:16:45.960Z,89.20
2023-02-04T21:19:35.644Z,92.24
2023-02-04T21:22:23.445Z,91.25
2023-02-04T21:25:10.513Z,91.11
2023-02-04T21:27:58.646Z,90.60
2023-02-04T21:30:46.017Z,90.29
2023-02-04T21:33:34.499Z,100.00
2023-02-04T21:36:24.279Z,91.26
2023-02-04T21:39:11.649Z,88.48
2023-02-04T21:42:10.898Z,89.06
2023-02-04T21:45:01.494Z,88.43
2023-02-04T21:47:50.843Z,95.05
2023-02-04T21:50:38.699Z,89.21
2023-02-04T21:53:25.900Z,89.32
2023-02-04T21:56:14.360Z,87.45
2023-02-04T21:59:01.537Z,87.46
2023-02-04T22:01:48.708Z,92.53
2023-02-04T22:04:35.795Z,90.81
2023-02-04T22:07:23.046Z,89.28
2023-02-04T22:10:13.254Z,95.04
2023-02-04T22:13:00.395Z,100.00
2023-02-04T22:15:48.349Z,99.05
2023-02-04T22:18:35.504Z,99.23
2023-02-04T22:21:22.583Z,99.95
2023-02-04T22:24:09.730Z,95.84
2023-02-04T22:26:56.812Z,100.00
2023-02-04T22:29:44.049Z,89.98
2023-02-04T22:32:31.222Z,88.77
2023-02-04T22:35:18.395Z,87.27
2023-02-04T22:38:05.535Z,85.03
2023-02-04T22:40:52.685Z,86.03
2023-02-04T22:43:39.744Z,85.12
2023-02-04T22:46:26.897Z,88.21
2023-02-04T22:49:13.988Z,84.15
2023-02-04T22:52:01.258Z,84.75
2023-02-04T22:54:48.423Z,87.86
2023-02-04T22:57:35.559Z,89.81
2023-02-04T23:00:22.791Z,92.27
2023-02-04T23:03:09.885Z,92.73
2023-02-04T23:05:56.971Z,92.50
2023-02-04T23:08:44.101Z,92.35
2023-02-04T23:11:31.160Z,93.42
2023-02-04T23:14:18.366Z,96.58
2023-02-04T23:17:05.468Z,100.00
2023-02-04T23:19:52.615Z,100.00
2023-02-04T23:22:40.048Z,100.00
2023-02-04T23:25:27.474Z,100.00
2023-02-04T23:28:15.924Z,100.00
2023-02-04T23:31:03.163Z,100.00
2023-02-04T23:33:50.296Z,100.00
2023-02-04T23:36:37.731Z,100.00
2023-02-04T23:39:24.920Z,100.00
2023-02-04T23:42:12.222Z,100.00
2023-02-04T23:44:59.372Z,100.00
2023-02-04T23:47:46.550Z,100.00
2023-02-04T23:50:33.626Z,100.00
2023-02-04T23:53:20.753Z,100.00
2023-02-04T23:56:08.357Z,100.00
2023-02-04T23:58:56.127Z,100.00
